Time;durP1;ratioP1;P1;durP2;ratioP2;P2;SDS_P1;SDS_P2;PMS_P1;PMS_P2;Temp;Humidity;BMP_temperature;BMP_pressure;BME280_temperature;BME280_humidity;BME280_pressure;Samples;Min_cycle;Max_cycle;Signal;HPM_P1;HPM_P2
2023/10/20 00:00:21;;;;;;;26.13;13.57;;;;;;;11.34;100.00;94767.66;5027779;28;20229;-70
2023/10/20 00:02:47;;;;;;;23.53;12.77;;;;;;;11.32;100.00;94753.97;4998970;28;20228;-68
2023/10/20 00:05:13;;;;;;;23.27;13.20;;;;;;;11.30;100.00;94762.00;5026862;28;20256;-69
2023/10/20 00:07:42;;;;;;;23.87;12.87;;;;;;;11.28;100.00;94763.22;5006300;28;20232;-69
2023/10/20 00:10:11;;;;;;;21.10;12.50;;;;;;;11.16;100.00;94759.63;5000371;28;20300;-68
2023/10/20 00:12:38;;;;;;;21.13;12.47;;;;;;;11.18;100.00;94752.38;5010470;28;20237;-69
2023/10/20 00:15:05;;;;;;;24.60;12.80;;;;;;;11.11;100.00;94744.56;5024427;28;20860;-69
2023/10/20 00:17:31;;;;;;;23.07;12.80;;;;;;;11.20;100.00;94745.13;4994709;28;20233;-70
2023/10/20 00:19:57;;;;;;;21.60;12.37;;;;;;;11.25;100.00;94747.91;5043740;28;20304;-69
2023/10/20 00:22:22;;;;;;;25.07;13.10;;;;;;;11.14;100.00;94746.75;5025713;28;20718;-70
2023/10/20 00:24:48;;;;;;;24.77;13.27;;;;;;;11.02;100.00;94748.41;5029061;28;20232;-68
2023/10/20 00:27:14;;;;;;;20.27;12.53;;;;;;;11.04;100.00;94754.25;5011869;28;21061;-69
2023/10/20 00:29:40;;;;;;;23.60;13.20;;;;;;;11.23;100.00;94749.94;4994190;28;20226;-69
2023/10/20 00:32:07;;;;;;;24.27;13.00;;;;;;;11.18;100.00;94740.09;5011608;28;20751;-69
2023/10/20 00:34:32;;;;;;;21.70;13.27;;;;;;;11.11;100.00;94733.25;4994542;28;20999;-69
2023/10/20 00:36:58;;;;;;;22.37;11.90;;;;;;;11.14;100.00;94730.25;5007689;28;20230;-69
2023/10/20 00:39:24;;;;;;;21.97;12.30;;;;;;;11.05;100.00;94732.28;4996513;28;20238;-69
2023/10/20 00:41:50;;;;;;;22.47;12.23;;;;;;;11.00;100.00;94726.06;4988212;28;20293;-70
2023/10/20 00:44:15;;;;;;;24.50;12.33;;;;;;;10.89;100.00;94724.09;4999216;28;20805;-69
2023/10/20 00:46:43;;;;;;;22.17;12.77;;;;;;;10.98;100.00;94721.03;4999860;28;20230;-68
2023/10/20 00:49:10;;;;;;;22.80;12.43;;;;;;;11.02;100.00;94727.47;4994824;28;20237;-70
2023/10/20 00:51:36;;;;;;;20.20;12.13;;;;;;;10.99;100.00;94717.38;4997392;28;20739;-69
2023/10/20 00:54:02;;;;;;;23.20;12.77;;;;;;;11.02;100.00;94724.84;4970482;28;20227;-68
2023/10/20 00:56:29;;;;;;;24.07;13.13;;;;;;;10.90;100.00;94718.63;4971046;28;20237;-69
2023/10/20 00:58:55;;;;;;;24.63;13.30;;;;;;;10.99;100.00;94720.00;4975272;28;20320;-69
2023/10/20 01:01:21;;;;;;;27.93;13.80;;;;;;;11.14;100.00;94725.00;4983541;28;20321;-69
2023/10/20 01:03:46;;;;;;;25.57;13.70;;;;;;;10.99;100.00;94725.25;5003666;28;20229;-69
2023/10/20 01:06:12;;;;;;;23.97;13.30;;;;;;;10.94;100.00;94732.91;4986143;28;20249;-68
2023/10/20 01:08:38;;;;;;;23.53;13.53;;;;;;;10.99;100.00;94724.44;4973849;28;20226;-68
2023/10/20 01:11:05;;;;;;;23.57;13.17;;;;;;;10.94;100.00;94711.97;4980403;28;20309;-68
2023/10/20 01:13:31;;;;;;;23.53;13.70;;;;;;;10.96;100.00;94727.50;4977318;28;20241;-69
2023/10/20 01:15:57;;;;;;;25.80;14.43;;;;;;;10.92;100.00;94727.09;4975129;28;20235;-70
2023/10/20 01:18:23;;;;;;;25.83;14.30;;;;;;;10.92;100.00;94719.22;4982459;28;20314;-69
2023/10/20 01:20:48;;;;;;;30.93;17.00;;;;;;;10.84;100.00;94717.63;4994403;28;20215;-70
2023/10/20 01:23:14;;;;;;;32.07;16.93;;;;;;;10.91;100.00;94708.97;4989711;28;20231;-69
2023/10/20 01:25:40;;;;;;;32.10;16.93;;;;;;;10.86;100.00;94716.63;4974339;28;21153;-69
2023/10/20 01:28:06;;;;;;;31.00;16.23;;;;;;;10.83;100.00;94713.44;5010193;28;20230;-69
2023/10/20 01:30:32;;;;;;;32.03;16.77;;;;;;;10.80;100.00;94707.78;4978492;28;20226;-69
2023/10/20 01:32:58;;;;;;;28.03;15.87;;;;;;;10.79;100.00;94712.22;4973768;28;20238;-69
2023/10/20 01:35:24;;;;;;;30.07;16.07;;;;;;;10.60;100.00;94701.81;4995327;28;20226;-68
2023/10/20 01:37:50;;;;;;;28.53;15.40;;;;;;;10.53;100.00;94707.03;4988293;28;20246;-70
2023/10/20 01:40:17;;;;;;;32.90;15.77;;;;;;;10.70;100.00;94699.53;5025125;28;20320;-69
2023/10/20 01:42:43;;;;;;;29.43;16.33;;;;;;;10.76;100.00;94696.94;5015111;28;20237;-69
2023/10/20 01:45:09;;;;;;;27.47;14.97;;;;;;;10.82;100.00;94684.81;5023998;28;20339;-68
2023/10/20 01:47:35;;;;;;;31.80;15.63;;;;;;;10.79;100.00;94685.25;4998880;28;20461;-69
2023/10/20 01:50:01;;;;;;;27.43;15.07;;;;;;;10.63;100.00;94681.25;5013352;28;20723;-70
2023/10/20 01:52:26;;;;;;;26.77;15.30;;;;;;;10.55;100.00;94684.09;5002675;28;20320;-70
2023/10/20 01:54:52;;;;;;;28.80;14.67;;;;;;;10.57;100.00;94684.72;4995924;28;20218;-69
2023/10/20 01:57:18;;;;;;;27.87;14.60;;;;;;;10.52;100.00;94689.75;5009349;28;20288;-69
2023/10/20 01:59:44;;;;;;;27.70;14.63;;;;;;;10.60;100.00;94686.09;4993794;28;20257;-70
2023/10/20 02:02:11;;;;;;;27.57;14.60;;;;;;;10.67;100.00;94692.94;5013745;28;20233;-70
2023/10/20 02:04:36;;;;;;;23.47;13.40;;;;;;;10.52;100.00;94694.97;5007299;28;20248;-69
2023/10/20 02:07:03;;;;;;;24.43;14.00;;;;;;;10.65;100.00;94700.16;5015018;28;20237;-69
2023/10/20 02:09:28;;;;;;;25.07;13.87;;;;;;;10.57;100.00;94696.97;5028170;28;20233;-69
2023/10/20 02:11:58;;;;;;;25.53;13.60;;;;;;;10.64;100.00;94692.53;5029072;28;20880;-69
2023/10/20 02:14:24;;;;;;;22.47;13.27;;;;;;;10.58;100.00;94699.38;5012959;28;20836;-69
2023/10/20 02:16:52;;;;;;;25.77;13.87;;;;;;;10.69;100.00;94687.50;5014223;28;20234;-69
2023/10/20 02:19:18;;;;;;;22.90;12.87;;;;;;;10.72;100.00;94689.72;5030261;28;20240;-69
2023/10/20 02:21:45;;;;;;;25.63;13.53;;;;;;;10.70;100.00;94687.28;4995285;28;20230;-69
2023/10/20 02:24:11;;;;;;;25.73;13.33;;;;;;;10.29;100.00;94692.00;5018727;28;20249;-69
2023/10/20 02:26:37;;;;;;;20.90;13.30;;;;;;;10.26;100.00;94699.44;4994316;28;20230;-69
2023/10/20 02:29:03;;;;;;;22.13;13.20;;;;;;;10.27;100.00;94701.06;4997560;28;20264;-69
2023/10/20 02:31:29;;;;;;;24.53;12.80;;;;;;;10.35;100.00;94699.03;5012067;28;20329;-69
2023/10/20 02:33:55;;;;;;;23.93;13.17;;;;;;;10.40;100.00;94694.00;4994408;28;20238;-69
2023/10/20 02:36:21;;;;;;;23.60;13.03;;;;;;;10.27;100.00;94704.44;4994855;28;20320;-69
2023/10/20 02:38:52;;;;;;;22.60;12.40;;;;;;;10.29;100.00;94710.31;5003910;28;20261;-69
2023/10/20 02:41:17;;;;;;;22.37;12.57;;;;;;;10.24;100.00;94702.28;5010726;28;20234;-71
2023/10/20 02:43:43;;;;;;;21.33;12.70;;;;;;;10.17;100.00;94695.44;5015171;28;20715;-70
2023/10/20 02:46:11;;;;;;;25.57;12.63;;;;;;;10.23;100.00;94703.25;5028266;28;20934;-70
2023/10/20 02:48:37;;;;;;;30.93;14.90;;;;;;;10.26;100.00;94704.66;4996872;28;20237;-69
2023/10/20 02:51:12;;;;;;;35.87;16.10;;;;;;;10.29;100.00;94712.94;4992580;28;20238;-70
2023/10/20 02:53:41;;;;;;;30.70;15.33;;;;;;;10.22;100.00;94703.47;5018989;28;20234;-69
2023/10/20 02:56:12;;;;;;;41.57;17.27;;;;;;;10.09;100.00;94699.00;4994830;28;20233;-69
2023/10/20 02:58:38;;;;;;;36.33;17.07;;;;;;;10.21;100.00;94691.38;4980243;28;20225;-69
2023/10/20 03:01:05;;;;;;;29.77;14.70;;;;;;;10.21;100.00;94683.53;4997812;28;20240;-70
2023/10/20 03:03:31;;;;;;;30.40;14.83;;;;;;;10.14;100.00;94686.19;5008904;28;20225;-69
2023/10/20 03:05:57;;;;;;;29.07;14.73;;;;;;;10.09;100.00;94680.72;5007087;28;20737;-69
2023/10/20 03:08:23;;;;;;;28.13;13.70;;;;;;;10.10;100.00;94688.34;5025401;28;20280;-70
2023/10/20 03:10:48;;;;;;;25.30;13.53;;;;;;;10.10;100.00;94679.72;4995860;28;20536;-69
2023/10/20 03:13:16;;;;;;;28.17;13.33;;;;;;;9.95;100.00;94682.53;4991373;28;20249;-69
2023/10/20 03:15:42;;;;;;;23.67;12.60;;;;;;;9.88;100.00;94683.53;4992305;28;20279;-70
2023/10/20 03:18:08;;;;;;;21.40;12.17;;;;;;;9.97;100.00;94688.38;4992208;28;20238;-70
2023/10/20 03:20:33;;;;;;;26.00;13.77;;;;;;;9.99;100.00;94688.16;4994151;28;20260;-70
2023/10/20 03:22:59;;;;;;;25.20;13.10;;;;;;;9.80;100.00;94684.53;4996537;28;20238;-69
2023/10/20 03:25:26;;;;;;;24.70;12.97;;;;;;;9.98;100.00;94674.28;5003933;28;20733;-69
2023/10/20 03:27:52;;;;;;;27.70;13.00;;;;;;;9.81;100.00;94680.13;5007573;28;20320;-70
2023/10/20 03:30:17;;;;;;;23.93;12.63;;;;;;;9.85;100.00;94676.91;5003879;28;20236;-69
2023/10/20 03:32:46;;;;;;;24.47;12.47;;;;;;;9.67;100.00;94668.06;5021878;28;20226;-69
2023/10/20 03:35:12;;;;;;;27.93;13.20;;;;;;;9.93;100.00;94684.56;5028931;28;20382;-69
2023/10/20 03:37:40;;;;;;;27.47;13.40;;;;;;;9.89;100.00;94688.56;4993789;28;20321;-69
2023/10/20 03:40:13;;;;;;;28.07;13.97;;;;;;;9.95;100.00;94685.16;4993581;28;20238;-69
2023/10/20 03:42:41;;;;;;;26.27;13.47;;;;;;;9.89;100.00;94672.06;4990158;28;20547;-69
2023/10/20 03:45:09;;;;;;;26.13;13.43;;;;;;;9.74;100.00;94672.28;5006344;28;20320;-68
2023/10/20 03:47:38;;;;;;;29.87;14.23;;;;;;;9.82;100.00;94663.41;4994800;28;20301;-70
2023/10/20 03:50:16;;;;;;;26.60;14.10;;;;;;;9.82;100.00;94655.56;5012583;28;20239;-68
2023/10/20 03:52:44;;;;;;;31.47;13.97;;;;;;;9.92;100.00;94655.97;5000651;28;20238;-70
2023/10/20 03:55:13;;;;;;;23.27;13.30;;;;;;;9.95;100.00;94660.81;5011473;28;20234;-69
2023/10/20 03:57:40;;;;;;;24.40;13.93;;;;;;;9.72;100.00;94655.97;4992476;28;20252;-68
2023/10/20 04:02:52;;;;;;;26.63;13.47;;;;;;;9.82;100.00;94663.41;5007943;28;20245;-68
2023/10/20 04:05:19;;;;;;;23.10;13.07;;;;;;;9.70;100.00;94659.78;5015840;28;20226;-70
2023/10/20 04:07:45;;;;;;;26.90;13.73;;;;;;;9.79;100.00;94658.59;5008935;28;20618;-70
2023/10/20 04:10:12;;;;;;;26.07;13.80;;;;;;;9.78;100.00;94657.81;5002071;28;20241;-69
2023/10/20 04:12:41;;;;;;;27.00;13.77;;;;;;;9.77;100.00;94650.13;5006961;28;20914;-69
2023/10/20 04:15:14;;;;;;;26.07;14.13;;;;;;;9.81;100.00;94654.78;4990181;28;20229;-70
2023/10/20 04:17:44;;;;;;;27.80;14.00;;;;;;;9.68;100.00;94653.97;4992754;28;20233;-69
2023/10/20 04:20:15;;;;;;;27.77;14.33;;;;;;;9.92;100.00;94666.44;4999342;28;20234;-70
2023/10/20 04:22:49;;;;;;;31.33;15.53;;;;;;;9.90;100.00;94664.03;4990910;28;20229;-69
2023/10/20 04:25:18;;;;;;;28.97;15.13;;;;;;;9.97;100.00;94658.78;5007947;28;20308;-69
2023/10/20 04:52:11;;;;;;;32.07;15.67;;;;;;;9.54;100.00;94660.19;4961650;28;20759;-69
2023/10/20 04:57:52;;;;;;;30.20;14.87;;;;;;;9.58;100.00;94666.63;4988670;28;20328;-70
2023/10/20 05:05:34;;;;;;;35.90;15.80;;;;;;;9.81;100.00;94669.66;5010295;28;20225;-68
2023/10/20 05:08:17;;;;;;;35.20;16.33;;;;;;;9.62;100.00;94671.25;5010954;28;20241;-69
2023/10/20 05:10:44;;;;;;;30.70;16.07;;;;;;;9.74;100.00;94684.53;4996793;28;20329;-69
2023/10/20 05:13:11;;;;;;;32.60;15.87;;;;;;;9.78;100.00;94686.53;4989526;28;20226;-69
2023/10/20 05:15:40;;;;;;;34.63;16.37;;;;;;;9.88;100.00;94680.91;5011108;28;20241;-70
2023/10/20 05:18:11;;;;;;;36.67;17.17;;;;;;;9.81;100.00;94677.50;4999806;28;20226;-69
2023/10/20 05:20:42;;;;;;;37.00;16.27;;;;;;;9.78;100.00;94675.28;4993952;28;20314;-69
2023/10/20 05:23:14;;;;;;;34.87;16.77;;;;;;;9.82;100.00;94681.72;5022426;28;20265;-70
2023/10/20 05:25:47;;;;;;;38.90;17.23;;;;;;;9.88;100.00;94688.75;5002793;28;20233;-69
2023/10/20 05:28:12;;;;;;;36.83;16.83;;;;;;;9.99;100.00;94696.00;4988723;28;20272;-68
2023/10/20 05:30:42;;;;;;;34.23;17.30;;;;;;;10.00;100.00;94705.47;5004854;28;20307;-70
2023/10/20 05:33:09;;;;;;;39.47;17.40;;;;;;;9.96;100.00;94712.06;5012139;28;20232;-69
2023/10/20 05:35:35;;;;;;;39.83;17.40;;;;;;;10.12;100.00;94706.50;4993984;28;20264;-69
2023/10/20 05:38:01;;;;;;;38.27;18.63;;;;;;;10.20;100.00;94708.88;5004739;28;20234;-70
2023/10/20 05:40:27;;;;;;;38.03;18.53;;;;;;;10.26;100.00;94710.72;4982078;28;20238;-69
2023/10/20 05:42:52;;;;;;;36.63;18.67;;;;;;;10.49;100.00;94713.69;4981509;28;20767;-70
2023/10/20 05:45:20;;;;;;;40.23;19.13;;;;;;;10.46;100.00;94705.47;4996053;28;20237;-70
2023/10/20 05:47:46;;;;;;;35.27;18.13;;;;;;;10.43;100.00;94704.06;4971484;28;20230;-69
2023/10/20 05:50:13;;;;;;;36.30;18.57;;;;;;;10.39;100.00;94700.22;4991322;28;20790;-69
2023/10/20 05:52:39;;;;;;;33.53;17.43;;;;;;;10.63;100.00;94704.81;4967685;28;20241;-68
2023/10/20 05:55:05;;;;;;;37.73;17.67;;;;;;;10.56;100.00;94706.63;4968057;28;20254;-70
2023/10/20 05:57:31;;;;;;;41.93;18.40;;;;;;;10.39;100.00;94710.69;4990579;28;20816;-70
2023/10/20 06:00:00;;;;;;;36.70;18.13;;;;;;;10.61;100.00;94709.44;4998217;28;20228;-70
2023/10/20 06:02:27;;;;;;;38.53;17.87;;;;;;;10.67;100.00;94702.59;4951587;28;20297;-69
2023/10/20 06:04:53;;;;;;;35.80;18.10;;;;;;;10.71;100.00;94704.59;4976964;28;20321;-70
2023/10/20 06:07:19;;;;;;;37.43;18.33;;;;;;;10.87;100.00;94710.41;4952199;28;20315;-69
2023/10/20 06:09:44;;;;;;;33.57;17.93;;;;;;;11.06;100.00;94706.88;4972362;28;20309;-69
2023/10/20 06:12:12;;;;;;;34.20;17.50;;;;;;;11.21;100.00;94713.50;4951930;28;20233;-69
2023/10/20 06:14:38;;;;;;;37.13;17.30;;;;;;;11.14;100.00;94714.53;4958554;28;20245;-69
2023/10/20 06:17:04;;;;;;;33.10;17.60;;;;;;;11.22;100.00;94709.06;4957978;28;20231;-70
2023/10/20 06:19:31;;;;;;;30.80;17.07;;;;;;;11.37;100.00;94713.00;4987368;28;20241;-69
2023/10/20 06:21:56;;;;;;;30.70;17.00;;;;;;;11.44;100.00;94718.19;4980873;28;20949;-69
2023/10/20 06:24:22;;;;;;;32.00;17.63;;;;;;;11.56;100.00;94710.50;4994966;28;20234;-69
2023/10/20 06:26:48;;;;;;;33.50;18.00;;;;;;;11.59;100.00;94710.88;4999530;28;20242;-70
2023/10/20 06:34:46;;;;;;;31.83;18.17;;;;;;;11.81;100.00;94695.66;4974925;28;20713;-70
2023/10/20 06:37:25;;;;;;;29.70;17.13;;;;;;;11.96;99.46;94694.34;4984306;28;20293;-70
2023/10/20 06:39:51;;;;;;;36.97;18.53;;;;;;;12.10;100.00;94697.66;5012669;28;21018;-69
2023/10/20 06:42:17;;;;;;;35.17;18.80;;;;;;;12.23;100.00;94697.53;4989785;28;20289;-69
2023/10/20 06:44:43;;;;;;;35.40;19.67;;;;;;;12.37;100.00;94706.13;4986069;28;20303;-70
2023/10/20 06:47:09;;;;;;;29.53;17.23;;;;;;;12.47;98.99;94711.66;4995797;28;20250;-69
2023/10/20 06:49:35;;;;;;;30.77;16.90;;;;;;;12.49;98.43;94714.88;4984950;28;20231;-69
2023/10/20 06:52:03;;;;;;;28.53;16.57;;;;;;;12.65;98.29;94715.13;4991660;28;20304;-70
2023/10/20 06:54:29;;;;;;;30.03;17.10;;;;;;;12.71;97.75;94709.00;4984881;28;20230;-69
2023/10/20 06:56:55;;;;;;;29.67;16.77;;;;;;;12.71;97.80;94718.69;5006351;28;20389;-68
2023/10/20 06:59:20;;;;;;;31.13;16.93;;;;;;;12.88;97.59;94714.47;5004908;28;20310;-69
2023/10/20 07:01:46;;;;;;;31.30;17.10;;;;;;;12.92;97.18;94715.66;4990824;28;20230;-70
2023/10/20 07:04:13;;;;;;;31.13;17.37;;;;;;;12.95;97.42;94715.22;4993140;28;21153;-69
2023/10/20 07:06:40;;;;;;;28.70;16.70;;;;;;;13.04;97.68;94715.75;4992567;28;20329;-69
2023/10/20 07:09:15;;;;;;;31.10;17.07;;;;;;;13.05;97.22;94710.25;5006924;28;21119;-70
2023/10/20 07:11:42;;;;;;;32.70;16.90;;;;;;;13.07;96.33;94718.75;4978499;28;20299;-70
2023/10/20 07:14:10;;;;;;;35.37;19.50;;;;;;;13.15;96.77;94709.78;4993917;28;20231;-70
2023/10/20 07:16:36;;;;;;;33.57;19.03;;;;;;;13.23;96.53;94709.50;4970153;28;20308;-70
2023/10/20 07:19:02;;;;;;;36.30;18.10;;;;;;;13.31;95.33;94709.97;5006996;28;20248;-70
2023/10/20 07:21:29;;;;;;;36.87;18.93;;;;;;;13.35;95.80;94716.38;4990596;28;20231;-69
2023/10/20 07:23:57;;;;;;;32.10;17.53;;;;;;;13.42;95.23;94713.69;4985101;28;20676;-70
2023/10/20 07:26:24;;;;;;;31.13;16.03;;;;;;;13.50;94.95;94710.75;4977864;28;20227;-70
2023/10/20 07:28:50;;;;;;;31.23;16.80;;;;;;;13.55;94.88;94710.88;4976864;28;20296;-70
2023/10/20 07:31:17;;;;;;;31.23;16.47;;;;;;;13.61;95.12;94707.38;4999522;28;20716;-69
2023/10/20 07:33:43;;;;;;;27.80;15.10;;;;;;;13.66;95.57;94717.22;5008664;28;20244;-70
2023/10/20 07:36:10;;;;;;;30.20;14.77;;;;;;;13.70;95.03;94724.44;5017552;28;20317;-69
2023/10/20 07:38:35;;;;;;;29.17;15.00;;;;;;;13.71;94.77;94718.13;4975763;28;20245;-69
2023/10/20 07:41:09;;;;;;;26.93;15.20;;;;;;;13.79;93.83;94730.19;5001890;28;20241;-70
2023/10/20 07:43:35;;;;;;;28.10;15.20;;;;;;;13.81;94.15;94736.00;5008110;28;20391;-68
2023/10/20 07:46:02;;;;;;;35.93;16.30;;;;;;;13.82;94.59;94730.53;4991455;28;20263;-70
2023/10/20 07:48:28;;;;;;;31.80;17.07;;;;;;;13.83;94.38;94724.25;5013646;28;20286;-70
2023/10/20 07:50:59;;;;;;;37.33;19.10;;;;;;;13.84;95.54;94719.78;5005593;28;20312;-68
2023/10/20 07:53:25;;;;;;;32.83;16.97;;;;;;;13.83;94.34;94723.44;5003149;28;20246;-70
2023/10/20 07:55:51;;;;;;;37.53;17.00;;;;;;;13.91;94.12;94720.50;5026940;28;20727;-68
2023/10/20 07:58:18;;;;;;;33.30;15.70;;;;;;;13.99;93.51;94720.19;5007067;28;20809;-71
2023/10/20 08:00:44;;;;;;;31.23;16.93;;;;;;;14.06;93.55;94716.44;5002109;28;20244;-71
2023/10/20 08:03:11;;;;;;;39.30;17.90;;;;;;;14.12;93.29;94720.78;4995155;28;20234;-70
2023/10/20 08:05:37;;;;;;;40.67;18.33;;;;;;;14.11;92.30;94723.66;4986350;28;20287;-70
2023/10/20 08:08:04;;;;;;;42.20;17.43;;;;;;;14.23;93.03;94719.22;5022763;28;20225;-69
2023/10/20 08:10:30;;;;;;;31.10;15.80;;;;;;;14.37;92.23;94714.56;4997227;28;20389;-69
2023/10/20 08:12:57;;;;;;;28.50;14.30;;;;;;;14.41;91.67;94713.88;5011908;28;20279;-70
2023/10/20 08:15:26;;;;;;;26.40;13.23;;;;;;;14.49;90.73;94712.75;5024729;28;20304;-69
2023/10/20 08:17:52;;;;;;;27.87;12.33;;;;;;;14.39;91.03;94708.03;4985429;28;20235;-69
2023/10/20 08:20:18;;;;;;;28.13;12.70;;;;;;;14.36;91.62;94707.69;5009116;28;20261;-69
2023/10/20 08:22:47;;;;;;;21.83;12.33;;;;;;;14.47;91.71;94715.59;5012368;28;20237;-70
2023/10/20 08:25:14;;;;;;;24.07;11.63;;;;;;;14.42;91.38;94717.31;5014613;28;20237;-68
2023/10/20 08:27:40;;;;;;;23.67;11.63;;;;;;;14.64;92.20;94705.97;5010059;28;20235;-69
2023/10/20 08:30:07;;;;;;;21.10;11.30;;;;;;;14.65;91.49;94715.50;4987024;28;20225;-69
2023/10/20 08:32:35;;;;;;;20.47;10.83;;;;;;;14.75;90.48;94699.91;5000222;28;20786;-69
2023/10/20 08:35:03;;;;;;;22.40;10.13;;;;;;;14.71;91.14;94700.59;5018967;28;20654;-70
2023/10/20 08:37:30;;;;;;;21.40;10.43;;;;;;;14.70;90.66;94699.81;5021822;28;20248;-69
2023/10/20 08:39:56;;;;;;;20.60;10.00;;;;;;;14.91;90.54;94705.50;4991754;28;20501;-70
2023/10/20 08:42:21;;;;;;;23.50;9.43;;;;;;;15.04;90.21;94692.09;4979042;28;20225;-69
2023/10/20 08:44:48;;;;;;;18.60;9.13;;;;;;;15.10;89.56;94693.78;5025352;28;20236;-69
2023/10/20 08:47:14;;;;;;;23.17;9.37;;;;;;;15.20;89.08;94697.44;5013879;28;20677;-70
2023/10/20 08:49:40;;;;;;;19.07;9.10;;;;;;;15.35;88.19;94700.38;4993040;28;20636;-70
2023/10/20 08:52:11;;;;;;;16.20;9.63;;;;;;;15.25;88.59;94696.72;4987278;28;20240;-70
2023/10/20 08:54:38;;;;;;;16.23;9.43;;;;;;;15.30;89.14;94697.63;4994273;28;20957;-69
2023/10/20 08:57:04;;;;;;;22.83;9.93;;;;;;;15.37;87.78;94689.59;4996690;28;20305;-70
2023/10/20 08:59:30;;;;;;;18.73;10.03;;;;;;;15.31;88.14;94696.59;5024217;28;20272;-70
2023/10/20 09:01:56;;;;;;;21.23;10.60;;;;;;;15.34;88.43;94693.50;5021166;28;20288;-69
2023/10/20 09:04:22;;;;;;;17.30;9.90;;;;;;;15.29;88.70;94687.31;4981952;28;20883;-69
2023/10/20 09:06:52;;;;;;;22.30;10.40;;;;;;;15.48;88.51;94678.22;5025288;28;20229;-70
2023/10/20 09:09:19;;;;;;;25.97;10.10;;;;;;;15.70;87.12;94681.81;5006424;28;20233;-69
2023/10/20 09:11:45;;;;;;;19.40;10.20;;;;;;;15.65;86.96;94683.53;5017252;28;20232;-69
2023/10/20 09:14:15;;;;;;;23.70;10.13;;;;;;;15.89;85.81;94685.03;4995785;28;20277;-69
2023/10/20 09:16:42;;;;;;;19.20;10.07;;;;;;;16.11;85.73;94686.75;4992959;28;20640;-69
2023/10/20 09:19:14;;;;;;;21.17;9.97;;;;;;;16.09;85.63;94678.28;5007651;28;20730;-69
2023/10/20 09:21:39;;;;;;;21.43;9.73;;;;;;;16.30;84.15;94671.47;5021699;28;20344;-68
2023/10/20 09:24:07;;;;;;;27.77;9.60;;;;;;;16.55;83.41;94668.44;5013529;28;20259;-70
2023/10/20 09:26:37;;;;;;;27.47;10.20;;;;;;;16.77;81.71;94664.00;5008573;28;20346;-69
2023/10/20 09:29:07;;;;;;;18.47;9.57;;;;;;;17.05;80.46;94671.00;5027741;28;20736;-71
2023/10/20 09:31:33;;;;;;;20.23;9.67;;;;;;;17.08;80.75;94658.06;5008654;28;20240;-70
2023/10/20 09:33:58;;;;;;;23.03;10.17;;;;;;;17.07;80.25;94648.53;5013426;28;20279;-70
2023/10/20 09:36:24;;;;;;;20.97;9.60;;;;;;;17.31;80.80;94652.53;4991753;28;20320;-70
2023/10/20 09:38:55;;;;;;;23.20;10.30;;;;;;;17.43;79.60;94645.25;4994116;28;20373;-69
2023/10/20 09:41:21;;;;;;;26.37;9.63;;;;;;;17.65;79.47;94647.09;4998476;28;20349;-70
2023/10/20 09:43:54;;;;;;;21.53;9.13;;;;;;;17.82;76.78;94645.94;4996027;28;20226;-69
2023/10/20 09:46:38;;;;;;;21.23;8.53;;;;;;;17.82;76.59;94645.94;4991075;28;20238;-70
2023/10/20 09:49:18;;;;;;;16.67;8.37;;;;;;;17.88;76.72;94633.56;5012816;28;20237;-70
2023/10/20 09:51:45;;;;;;;19.90;8.57;;;;;;;17.89;77.46;94630.66;4975247;28;20253;-69
2023/10/20 09:54:13;;;;;;;22.80;9.60;;;;;;;17.90;76.46;94626.97;4997033;28;20297;-70
2023/10/20 09:56:39;;;;;;;25.17;8.60;;;;;;;18.04;77.45;94635.28;4969433;28;20300;-69
2023/10/20 09:59:05;;;;;;;18.23;7.83;;;;;;;18.08;76.46;94636.34;4984622;28;20224;-71
2023/10/20 10:01:31;;;;;;;22.73;8.27;;;;;;;18.19;75.88;94630.09;4982059;28;20234;-69
2023/10/20 10:04:03;;;;;;;20.40;8.57;;;;;;;18.22;76.14;94623.50;4968575;28;20246;-71
2023/10/20 10:06:34;;;;;;;19.67;7.90;;;;;;;18.10;76.95;94621.81;4996959;28;20602;-69
2023/10/20 10:09:00;;;;;;;17.57;7.83;;;;;;;18.16;76.05;94622.66;4978898;28;20225;-68
2023/10/20 10:11:28;;;;;;;24.63;7.67;;;;;;;18.06;75.53;94615.44;4992408;28;20764;-68
2023/10/20 10:13:55;;;;;;;25.17;7.30;;;;;;;18.12;75.66;94613.63;4999341;28;20221;-71
2023/10/20 10:16:23;;;;;;;14.73;7.00;;;;;;;18.25;74.95;94604.44;4974889;28;20231;-70
2023/10/20 10:18:49;;;;;;;14.67;7.20;;;;;;;18.25;75.33;94589.34;4997355;28;20230;-68
2023/10/20 10:21:25;;;;;;;25.00;7.87;;;;;;;18.34;76.01;94589.69;4974186;28;20733;-69
2023/10/20 10:24:09;;;;;;;15.97;7.57;;;;;;;18.35;75.84;94586.75;4993150;28;20229;-69
2023/10/20 10:26:56;;;;;;;23.63;6.60;;;;;;;18.39;75.50;94593.13;5027054;28;20238;-69
2023/10/20 10:29:53;;;;;;;19.53;7.00;;;;;;;18.39;75.58;94597.66;4995433;28;20233;-69
2023/10/20 10:32:22;;;;;;;18.10;6.63;;;;;;;18.51;74.73;94591.13;4993687;28;20269;-68
2023/10/20 10:34:54;;;;;;;14.33;6.20;;;;;;;18.56;74.52;94585.84;4986485;28;20316;-69
2023/10/20 10:37:36;;;;;;;15.20;6.37;;;;;;;18.83;74.06;94573.28;4992411;28;20722;-69
2023/10/20 10:40:10;;;;;;;17.20;5.60;;;;;;;19.03;72.76;94571.78;4990789;28;20230;-69
2023/10/20 10:42:39;;;;;;;19.23;5.20;;;;;;;19.22;71.93;94564.94;4992545;28;20218;-69
2023/10/20 10:45:19;;;;;;;22.00;5.30;;;;;;;19.28;71.79;94567.34;4977852;28;20608;-69
2023/10/20 10:47:46;;;;;;;16.77;5.60;;;;;;;19.42;72.65;94563.16;4996389;28;20238;-69
2023/10/20 10:50:12;;;;;;;16.20;5.53;;;;;;;19.46;72.78;94558.13;4988141;28;20316;-69
2023/10/20 10:52:38;;;;;;;16.27;4.90;;;;;;;19.58;71.29;94563.19;5006072;28;20218;-69
2023/10/20 10:55:05;;;;;;;17.10;5.27;;;;;;;19.67;72.27;94559.75;5026384;28;20295;-69
2023/10/20 10:57:31;;;;;;;15.07;4.97;;;;;;;19.83;69.12;94566.66;5002895;28;20766;-69
2023/10/20 10:59:57;;;;;;;14.23;4.60;;;;;;;20.00;66.55;94563.72;5007462;28;20234;-69
2023/10/20 11:02:23;;;;;;;10.77;4.37;;;;;;;20.05;69.06;94553.91;4986273;28;20253;-69
2023/10/20 11:04:48;;;;;;;18.00;4.93;;;;;;;20.18;67.46;94550.69;5008522;28;20258;-68
2023/10/20 11:07:15;;;;;;;14.83;4.70;;;;;;;20.55;65.68;94552.25;5006239;28;20981;-70
2023/10/20 11:09:41;;;;;;;17.87;5.07;;;;;;;20.66;63.30;94559.13;5011236;28;20230;-69
2023/10/20 11:12:12;;;;;;;23.73;5.00;;;;;;;20.92;62.53;94563.28;4992382;28;20233;-69
2023/10/20 11:14:39;;;;;;;21.47;5.40;;;;;;;21.01;63.24;94553.69;5008006;28;20248;-69
2023/10/20 11:17:05;;;;;;;14.87;5.13;;;;;;;21.06;63.06;94552.91;4994490;28;20336;-69
2023/10/20 11:19:30;;;;;;;17.77;4.80;;;;;;;21.06;62.75;94545.72;5007449;28;20294;-69
2023/10/20 11:21:56;;;;;;;19.00;4.80;;;;;;;21.19;60.80;94547.78;5000069;28;20855;-70
2023/10/20 11:24:31;;;;;;;13.73;4.30;;;;;;;21.25;60.68;94546.69;4995522;28;20233;-69
2023/10/20 11:27:00;;;;;;;14.30;4.57;;;;;;;21.30;60.69;94538.66;5007062;28;20364;-69
2023/10/20 11:29:29;;;;;;;19.87;4.80;;;;;;;21.38;62.33;94526.63;5022149;28;20251;-68
2023/10/20 11:31:56;;;;;;;16.03;4.43;;;;;;;21.38;62.48;94532.75;4993593;28;21097;-70
2023/10/20 11:34:23;;;;;;;11.90;4.10;;;;;;;21.65;60.03;94519.00;4996246;28;20879;-69
2023/10/20 11:36:49;;;;;;;15.43;4.80;;;;;;;21.60;61.87;94526.22;4993435;28;20624;-70
2023/10/20 11:39:16;;;;;;;17.33;4.20;;;;;;;21.55;60.48;94531.59;5005495;28;20230;-69
2023/10/20 11:41:41;;;;;;;14.90;4.73;;;;;;;21.66;59.85;94530.47;4994180;28;20237;-69
2023/10/20 11:44:08;;;;;;;16.53;4.20;;;;;;;21.64;60.75;94525.38;5023702;28;20230;-69
2023/10/20 11:46:34;;;;;;;15.80;4.70;;;;;;;21.62;63.06;94521.41;5007737;28;20229;-69
2023/10/20 11:49:00;;;;;;;18.27;4.57;;;;;;;21.70;62.75;94540.28;4994019;28;20230;-70
2023/10/20 11:51:26;;;;;;;17.60;4.30;;;;;;;21.77;61.08;94523.97;4993234;28;20300;-69
2023/10/20 11:53:52;;;;;;;19.37;4.33;;;;;;;21.65;61.64;94523.53;5009317;28;20796;-69
2023/10/20 11:56:17;;;;;;;15.97;4.40;;;;;;;21.69;59.87;94516.56;4992636;28;20230;-70
2023/10/20 11:58:44;;;;;;;13.17;4.23;;;;;;;21.77;60.48;94518.66;4996359;28;20222;-69